Felts Field
KSFF : now visible

Airfield :











YOU CAN JOIN US ON...

 
LOGIN :

Register | Disclaimer

   EN    FR    IT 

 









Legend :    VFR   Marginal VFR   IFR   Intensive IFR   Very Intensive IFR
Visi :
Ceiling :
>= 8 km
>= 3000ft
5 to 8 km
1000 to 3000 ft
1500m to 5 km
500 to 1000 ft
800 to 1500m
200 to 500 ft
< 800m
< 200 ft
Symbols :   Thunderstorms  Fog  Heavy snow  Heavy precipitations  Wind > 20 kt






- Airport Elevation : 1953 ft


KSFF - Felts Field

CURRENT METAR :
  • 261453Z 21008KT 10SM FEW020 09/02 A3004 RMK AO2 SLP172 T00890022 51019

EXPIRED METARs :
  • 261353Z 21005KT 10SM CLR 07/02 A3003 RMK AO2 SLP168 T00720022
  • 261253Z 23003KT 10SM BKN070 06/01 A3000 RMK AO2 SLP160 T00610011
  • 261153Z AUTO 21004KT 10SM OVC048 06/01 A2998 RMK AO2 SLP153 T00610011 10111 20061 51024
  • 261053Z AUTO 24005KT 10SM BKN050 07/01 A2996 RMK AO2 SLP142 T00670011

TAF KSFF
Valid from the 26 at 12:00 until the 27 at 12:00 UTC


261124Z 2612/2712 24005KT P6SM BKN050
FM261500 21008KT P6SM SCT080 BKN180
FM261800 22010KT P6SM BKN060 BKN120
FM270300 23005KT P6SM SCT100
FM270600 03002KT P6SM BKN250
KZSE FIR / North America



MET'MAP, your aeronautical weather chart ! - Copyright ORBIFLY December 2007 - Disclaimer

ORBIFLY MET'MAP TEAM :

Programming & Development : Alexandra Zaïnal
Original concept : Baudouin d'Aumeries
Technical & hardware support : Manuel Goepfert
Assistance : Marc-Olivier Méhu




SOURCES & CREDITS :

   NOAA       Earth
Advisory